sensor_id;sensor_type;location;lat;lon;timestamp;pressure;altitude;pressure_sealevel;temperature;humidity
45113;BME280;30873;53.908;27.576;2022-12-05T00:04:11;1035.6;;;-4.2;65.5
45113;BME280;30873;53.908;27.576;2022-12-05T00:09:29;1035.5;;;-4.2;65.2
45113;BME280;30873;53.908;27.576;2022-12-05T00:14:53;1035.5;;;-4.2;65.2
45113;BME280;30873;53.908;27.576;2022-12-05T00:19:57;1035.5;;;-4.3;65.1
45113;BME280;30873;53.908;27.576;2022-12-05T00:24:57;1035.5;;;-4.2;65.1
45113;BME280;30873;53.908;27.576;2022-12-05T00:29:11;1035.6;;;-4.1;64.9
45113;BME280;30873;53.908;27.576;2022-12-05T00:34:43;1035.5;;;-4.1;64.7
45113;BME280;30873;53.908;27.576;2022-12-05T00:39:57;1035.5;;;-4.1;64.6
45113;BME280;30873;53.908;27.576;2022-12-05T00:44:29;1035.4;;;-4.2;64.6
45113;BME280;30873;53.908;27.576;2022-12-05T00:49:57;1035.4;;;-4.2;64.9
45113;BME280;30873;53.908;27.576;2022-12-05T00:54:19;1035.5;;;-4.1;64.6
45113;BME280;30873;53.908;27.576;2022-12-05T00:59:43;1035.4;;;-4.1;64.4
45113;BME280;30873;53.908;27.576;2022-12-05T01:04:29;1035.4;;;-4.2;64.6
45113;BME280;30873;53.908;27.576;2022-12-05T01:09:41;1035.3;;;-4.3;64.7
45113;BME280;30873;53.908;27.576;2022-12-05T01:14:29;1035.3;;;-4.2;65.1
45113;BME280;30873;53.908;27.576;2022-12-05T01:19:12;1035.3;;;-4.1;64.8
45113;BME280;30873;53.908;27.576;2022-12-05T01:24:15;1035.3;;;-4.1;64.8
45113;BME280;30873;53.908;27.576;2022-12-05T01:29:59;1035.3;;;-4.1;64.9
45113;BME280;30873;53.908;27.576;2022-12-05T01:34:59;1035.2;;;-4.2;65
45113;BME280;30873;53.908;27.576;2022-12-05T01:39:59;1035.2;;;-4.1;65.2
45113;BME280;30873;53.908;27.576;2022-12-05T01:45:15;1035.2;;;-4;65.1
45113;BME280;30873;53.908;27.576;2022-12-05T01:49:37;1035.1;;;-4.1;65
45113;BME280;30873;53.908;27.576;2022-12-05T01:54:37;1035.1;;;-4;65.1
45113;BME280;30873;53.908;27.576;2022-12-05T01:59:19;1035.1;;;-4.1;65.1
45113;BME280;30873;53.908;27.576;2022-12-05T02:05:00;1035;;;-4.1;65.1
45113;BME280;30873;53.908;27.576;2022-12-05T02:09:39;1034.9;;;-4.1;65.1
45113;BME280;30873;53.908;27.576;2022-12-05T02:14:45;1034.8;;;-4.1;64.9
45113;BME280;30873;53.908;27.576;2022-12-05T02:19:18;1034.7;;;-4.2;64.9
45113;BME280;30873;53.908;27.576;2022-12-05T02:24:56;1034.7;;;-4.2;65
45113;BME280;30873;53.908;27.576;2022-12-05T02:29:55;1034.7;;;-4.3;64.7
45113;BME280;30873;53.908;27.576;2022-12-05T02:34:13;1034.7;;;-4.4;65
45113;BME280;30873;53.908;27.576;2022-12-05T02:39:49;1034.8;;;-4.4;64.9
45113;BME280;30873;53.908;27.576;2022-12-05T02:44:44;1034.7;;;-4.5;64.7
45113;BME280;30873;53.908;27.576;2022-12-05T02:49:34;1034.7;;;-4.6;64.6
45113;BME280;30873;53.908;27.576;2022-12-05T02:55:01;1034.7;;;-4.6;64.6
45113;BME280;30873;53.908;27.576;2022-12-05T02:59:11;1034.7;;;-4.7;64.6
45113;BME280;30873;53.908;27.576;2022-12-05T03:04:49;1034.7;;;-4.8;64.6
45113;BME280;30873;53.908;27.576;2022-12-05T03:09:48;1034.6;;;-4.8;64.8
45113;BME280;30873;53.908;27.576;2022-12-05T03:14:49;1034.6;;;-4.8;64.8
45113;BME280;30873;53.908;27.576;2022-12-05T03:20:04;1034.6;;;-4.9;64.7
45113;BME280;30873;53.908;27.576;2022-12-05T03:24:23;1034.5;;;-5.1;64.8
45113;BME280;30873;53.908;27.576;2022-12-05T03:30:02;1034.6;;;-5.2;65.1
45113;BME280;30873;53.908;27.576;2022-12-05T03:34:38;1034.7;;;-5.2;65.1
45113;BME280;30873;53.908;27.576;2022-12-05T03:39:52;1034.6;;;-5.2;65.2
45113;BME280;30873;53.908;27.576;2022-12-05T03:44:35;1034.6;;;-5.2;65.3
45113;BME280;30873;53.908;27.576;2022-12-05T03:49:11;1034.5;;;-5.2;65.2
45113;BME280;30873;53.908;27.576;2022-12-05T03:54:23;1034.5;;;-5.3;65.2
45113;BME280;30873;53.908;27.576;2022-12-05T03:59:50;1034.5;;;-5.2;65.2
45113;BME280;30873;53.908;27.576;2022-12-05T04:04:33;1034.5;;;-5.2;65.1
45113;BME280;30873;53.908;27.576;2022-12-05T04:09:50;1034.5;;;-5.3;65
45113;BME280;30873;53.908;27.576;2022-12-05T04:14:12;1034.6;;;-5.3;65.1
45113;BME280;30873;53.908;27.576;2022-12-05T04:19:48;1034.5;;;-5.3;65.1
45113;BME280;30873;53.908;27.576;2022-12-05T04:24:33;1034.5;;;-5.4;65.1
45113;BME280;30873;53.908;27.576;2022-12-05T04:29:22;1034.6;;;-5.6;65.3
45113;BME280;30873;53.908;27.576;2022-12-05T04:35:00;1034.7;;;-5.7;65.5
45113;BME280;30873;53.908;27.576;2022-12-05T04:39:35;1034.7;;;-5.8;65.7
45113;BME280;30873;53.908;27.576;2022-12-05T04:44:59;1034.7;;;-5.9;65.8
45113;BME280;30873;53.908;27.576;2022-12-05T04:49:45;1034.7;;;-6;66.1
45113;BME280;30873;53.908;27.576;2022-12-05T04:54:44;1034.8;;;-5.9;66.2
45113;BME280;30873;53.908;27.576;2022-12-05T04:59:33;1034.8;;;-6;66.1
45113;BME280;30873;53.908;27.576;2022-12-05T05:04:21;1034.8;;;-6;66.1
45113;BME280;30873;53.908;27.576;2022-12-05T05:09:31;1034.6;;;-6;66.1
45113;BME280;30873;53.908;27.576;2022-12-05T05:14:35;1034.6;;;-6.1;66.2
45113;BME280;30873;53.908;27.576;2022-12-05T05:19:31;1034.5;;;-6.2;66.6
45113;BME280;30873;53.908;27.576;2022-12-05T05:24:59;1034.5;;;-6.2;66.6
45113;BME280;30873;53.908;27.576;2022-12-05T05:29:21;1034.6;;;-6.2;66.6
45113;BME280;30873;53.908;27.576;2022-12-05T05:34:49;1034.5;;;-6.2;66.6
45113;BME280;30873;53.908;27.576;2022-12-05T05:39:47;1034.5;;;-6.3;66.7
45113;BME280;30873;53.908;27.576;2022-12-05T05:44:47;1034.4;;;-6.2;66.9
45113;BME280;30873;53.908;27.576;2022-12-05T05:49:59;1034.4;;;-6.1;66.6
45113;BME280;30873;53.908;27.576;2022-12-05T05:54:23;1034.4;;;-6.2;66.6
45113;BME280;30873;53.908;27.576;2022-12-05T06:00:02;1034.3;;;-6.2;66.8
45113;BME280;30873;53.908;27.576;2022-12-05T06:04:33;1034.3;;;-6.1;66.6
45113;BME280;30873;53.908;27.576;2022-12-05T06:09:47;1034.4;;;-6.1;66.5
45113;BME280;30873;53.908;27.576;2022-12-05T06:14:35;1034.4;;;-6.2;66.5
45113;BME280;30873;53.908;27.576;2022-12-05T06:19:47;1034.4;;;-6.2;66.6
45113;BME280;30873;53.908;27.576;2022-12-05T06:24:35;1034.5;;;-6.1;66.5
45113;BME280;30873;53.908;27.576;2022-12-05T06:29:45;1034.4;;;-6.1;66.4
45113;BME280;30873;53.908;27.576;2022-12-05T06:34:21;1034.4;;;-6;66.3
45113;BME280;30873;53.908;27.576;2022-12-05T06:40:01;1034.4;;;-6.1;66.2
45113;BME280;30873;53.908;27.576;2022-12-05T06:44:11;1034.4;;;-6;66.1
45113;BME280;30873;53.908;27.576;2022-12-05T06:49:49;1034.3;;;-6;66
45113;BME280;30873;53.908;27.576;2022-12-05T06:54:47;1034.3;;;-5.9;65.8
45113;BME280;30873;53.908;27.576;2022-12-05T06:59:47;1034.4;;;-5.8;65.6
45113;BME280;30873;53.908;27.576;2022-12-05T07:04:59;1034.5;;;-5.8;65.4
45113;BME280;30873;53.908;27.576;2022-12-05T07:09:21;1034.5;;;-5.7;65.2
45113;BME280;30873;53.908;27.576;2022-12-05T07:14:57;1034.5;;;-5.6;65
45113;BME280;30873;53.908;27.576;2022-12-05T07:19:57;1034.4;;;-5.5;64.6
45113;BME280;30873;53.908;27.576;2022-12-05T07:24:45;1034.3;;;-5.3;64.3
45113;BME280;30873;53.908;27.576;2022-12-05T07:29:57;1034.3;;;-5.2;64
45113;BME280;30873;53.908;27.576;2022-12-05T07:34:11;1034.2;;;-5.2;63.6
45113;BME280;30873;53.908;27.576;2022-12-05T07:39:31;1034.1;;;-5.1;63.5
45113;BME280;30873;53.908;27.576;2022-12-05T07:45:01;1034.1;;;-5.1;63.2
45113;BME280;30873;53.908;27.576;2022-12-05T07:49:21;1034.2;;;-4.9;63.1
45113;BME280;30873;53.908;27.576;2022-12-05T07:54:59;1034.4;;;-4.6;62.5
45113;BME280;30873;53.908;27.576;2022-12-05T07:59:21;1034.4;;;-4.6;61.8
45113;BME280;30873;53.908;27.576;2022-12-05T08:04:59;1034.3;;;-4.5;61.7
45113;BME280;30873;53.908;27.576;2022-12-05T08:09:33;1034.3;;;-4.3;61.2
45113;BME280;30873;53.908;27.576;2022-12-05T08:14:45;1034.2;;;-4.3;60.8
45113;BME280;30873;53.908;27.576;2022-12-05T08:19:47;1034.1;;;-4.3;60.7
45113;BME280;30873;53.908;27.576;2022-12-05T08:24:21;1034.2;;;-4.1;60.7
45113;BME280;30873;53.908;27.576;2022-12-05T08:29:57;1034.1;;;-3.8;59.7
45113;BME280;30873;53.908;27.576;2022-12-05T08:34:59;1034.1;;;-3.9;59.4
45113;BME280;30873;53.908;27.576;2022-12-05T08:39:45;1034.2;;;-3.9;59.4
45113;BME280;30873;53.908;27.576;2022-12-05T08:44:43;1034.2;;;-3.6;59.1
45113;BME280;30873;53.908;27.576;2022-12-05T08:49:11;1034.1;;;-3.4;58.8
45113;BME280;30873;53.908;27.576;2022-12-05T08:54:21;1034.1;;;-3.2;57.9
45113;BME280;30873;53.908;27.576;2022-12-05T08:59:57;1034.1;;;-2.9;57.6
45113;BME280;30873;53.908;27.576;2022-12-05T09:04:31;1034;;;-2.7;57.1
45113;BME280;30873;53.908;27.576;2022-12-05T09:09:59;1033.8;;;-2.3;56.6
45113;BME280;30873;53.908;27.576;2022-12-05T09:14:33;1033.8;;;-1.4;55
45113;BME280;30873;53.908;27.576;2022-12-05T09:19:57;1033.7;;;-1;53.4
45113;BME280;30873;53.908;27.576;2022-12-05T09:24:33;1033.6;;;-1;52.9
45113;BME280;30873;53.908;27.576;2022-12-05T09:29:45;1033.5;;;-0.8;52.2
45113;BME280;30873;53.908;27.576;2022-12-05T09:34:47;1033.4;;;-0.7;51.7
45113;BME280;30873;53.908;27.576;2022-12-05T09:39:21;1033.4;;;-0.8;51.6
45113;BME280;30873;53.908;27.576;2022-12-05T09:45:29;1033.3;;;-0.2;50.7
45113;BME280;30873;53.908;27.576;2022-12-05T09:49:57;1033.1;;;0.3;49.6
45113;BME280;30873;53.908;27.576;2022-12-05T09:54:45;1033.1;;;0.5;48.8
45113;BME280;30873;53.908;27.576;2022-12-05T09:59:33;1033.1;;;0.8;48.2
45113;BME280;30873;53.908;27.576;2022-12-05T10:04:39;1033;;;1.2;47.6
45113;BME280;30873;53.908;27.576;2022-12-05T10:09:38;1032.9;;;1.9;46.2
45113;BME280;30873;53.908;27.576;2022-12-05T10:14:58;1032.8;;;2.5;44.8
45113;BME280;30873;53.908;27.576;2022-12-05T10:19:45;1032.8;;;2.3;44.8
45113;BME280;30873;53.908;27.576;2022-12-05T10:24:58;1032.8;;;2.1;45.2
45113;BME280;30873;53.908;27.576;2022-12-05T10:29:23;1032.7;;;2.2;45.2
45113;BME280;30873;53.908;27.576;2022-12-05T10:34:59;1032.7;;;1.8;45.4
45113;BME280;30873;53.908;27.576;2022-12-05T10:39:33;1032.6;;;1.7;45.8
45113;BME280;30873;53.908;27.576;2022-12-05T10:44:47;1032.5;;;2.1;45.4
45113;BME280;30873;53.908;27.576;2022-12-05T10:49:47;1032.5;;;2.7;44.4
45113;BME280;30873;53.908;27.576;2022-12-05T10:54:36;1032.4;;;2.9;43.7
45113;BME280;30873;53.908;27.576;2022-12-05T10:59:57;1032.3;;;3.1;43.5
45113;BME280;30873;53.908;27.576;2022-12-05T11:04:57;1032.2;;;3.2;43.1
45113;BME280;30873;53.908;27.576;2022-12-05T11:09:24;1032.2;;;3.8;42.5
45113;BME280;30873;53.908;27.576;2022-12-05T11:14:35;1032.1;;;3.6;42.5
45113;BME280;30873;53.908;27.576;2022-12-05T11:19:16;1032;;;3.3;43
45113;BME280;30873;53.908;27.576;2022-12-05T11:24:34;1031.9;;;3.3;43.1
45113;BME280;30873;53.908;27.576;2022-12-05T11:30:00;1031.9;;;3.4;43
45113;BME280;30873;53.908;27.576;2022-12-05T11:34:34;1031.9;;;3.7;42.6
45113;BME280;30873;53.908;27.576;2022-12-05T11:39:57;1031.8;;;3.3;43
45113;BME280;30873;53.908;27.576;2022-12-05T11:44:14;1031.7;;;3.5;43
45113;BME280;30873;53.908;27.576;2022-12-05T11:49:49;1031.7;;;3.3;42.9
45113;BME280;30873;53.908;27.576;2022-12-05T11:54:41;1031.7;;;2.7;44.7
45113;BME280;30873;53.908;27.576;2022-12-05T12:00:02;1031.5;;;3;44.6
45113;BME280;30873;53.908;27.576;2022-12-05T12:04:49;1031.5;;;3.3;43.6
45113;BME280;30873;53.908;27.576;2022-12-05T12:09:40;1031.4;;;2.9;44
45113;BME280;30873;53.908;27.576;2022-12-05T12:14:24;1031.3;;;2.6;44.7
45113;BME280;30873;53.908;27.576;2022-12-05T12:20:03;1031.3;;;2.3;45.2
45113;BME280;30873;53.908;27.576;2022-12-05T12:25:02;1031.3;;;1.5;46.5
45113;BME280;30873;53.908;27.576;2022-12-05T12:29:41;1031.4;;;0.7;48
45113;BME280;30873;53.908;27.576;2022-12-05T12:34:17;1031.4;;;-0.1;49.7
45113;BME280;30873;53.908;27.576;2022-12-05T12:39:37;1031.3;;;-0.8;51.5
45113;BME280;30873;53.908;27.576;2022-12-05T12:45:30;1031.4;;;-1.5;53.1
45113;BME280;30873;53.908;27.576;2022-12-05T12:49:36;1031.4;;;-1.7;54.1
45113;BME280;30873;53.908;27.576;2022-12-05T12:54:51;1031.3;;;-1.7;54.4
45113;BME280;30873;53.908;27.576;2022-12-05T12:59:27;1031.3;;;-1.9;54.9
45113;BME280;30873;53.908;27.576;2022-12-05T13:04:34;1031.3;;;-2.3;55.5
45113;BME280;30873;53.908;27.576;2022-12-05T13:09:34;1031.2;;;-2.5;56.6
45113;BME280;30873;53.908;27.576;2022-12-05T13:14:47;1031.1;;;-2.6;57.1
45113;BME280;30873;53.908;27.576;2022-12-05T13:19:49;1031;;;-2.9;57.8
45113;BME280;30873;53.908;27.576;2022-12-05T13:24:11;1031;;;-3.2;58.7
45113;BME280;30873;53.908;27.576;2022-12-05T13:29:16;1031;;;-3.5;59.5
45113;BME280;30873;53.908;27.576;2022-12-05T13:35:06;1031;;;-3.6;60.2
45113;BME280;30873;53.908;27.576;2022-12-05T13:39:59;1030.9;;;-3.6;60.7
45113;BME280;30873;53.908;27.576;2022-12-05T13:44:36;1030.8;;;-3.7;61.2
45113;BME280;30873;53.908;27.576;2022-12-05T13:49:12;1030.8;;;-3.8;61.6
45113;BME280;30873;53.908;27.576;2022-12-05T13:54:23;1030.8;;;-3.8;62
45113;BME280;30873;53.908;27.576;2022-12-05T14:00:03;1030.7;;;-3.8;62.3
45113;BME280;30873;53.908;27.576;2022-12-05T14:04:42;1030.7;;;-3.7;62.3
45113;BME280;30873;53.908;27.576;2022-12-05T14:09:50;1030.6;;;-3.7;62.4
45113;BME280;30873;53.908;27.576;2022-12-05T14:14:11;1030.6;;;-3.7;62.6
45113;BME280;30873;53.908;27.576;2022-12-05T14:19:40;1030.6;;;-3.7;62.6
45113;BME280;30873;53.908;27.576;2022-12-05T14:24:34;1030.5;;;-3.8;62.9
45113;BME280;30873;53.908;27.576;2022-12-05T14:29:54;1030.5;;;-3.8;63.2
45113;BME280;30873;53.908;27.576;2022-12-05T14:34:57;1030.5;;;-3.8;63.4
45113;BME280;30873;53.908;27.576;2022-12-05T14:39:28;1030.5;;;-3.8;63.7
45113;BME280;30873;53.908;27.576;2022-12-05T14:44:48;1030.4;;;-3.9;63.9
45113;BME280;30873;53.908;27.576;2022-12-05T14:50:20;1030.5;;;-3.9;64.2
45113;BME280;30873;53.908;27.576;2022-12-05T14:55:04;1030.5;;;-3.9;64.3
45113;BME280;30873;53.908;27.576;2022-12-05T14:59:50;1030.5;;;-3.9;64.5
45113;BME280;30873;53.908;27.576;2022-12-05T15:04:15;1030.5;;;-3.9;64.3
45113;BME280;30873;53.908;27.576;2022-12-05T15:09:20;1030.5;;;-3.9;64.5
45113;BME280;30873;53.908;27.576;2022-12-05T15:15:05;1030.3;;;-3.9;64.6
45113;BME280;30873;53.908;27.576;2022-12-05T15:19:24;1030.2;;;-3.9;64.7
45113;BME280;30873;53.908;27.576;2022-12-05T15:24:47;1030.2;;;-3.9;64.9
45113;BME280;30873;53.908;27.576;2022-12-05T15:29:33;1030.1;;;-3.9;64.8
45113;BME280;30873;53.908;27.576;2022-12-05T15:34:24;1030;;;-4;65
45113;BME280;30873;53.908;27.576;2022-12-05T15:39:48;1030.1;;;-4.1;65.2
45113;BME280;30873;53.908;27.576;2022-12-05T15:44:49;1030;;;-4;65.5
45113;BME280;30873;53.908;27.576;2022-12-05T15:49:49;1029.9;;;-3.9;65.5
45113;BME280;30873;53.908;27.576;2022-12-05T15:54:35;1029.9;;;-3.9;65.5
45113;BME280;30873;53.908;27.576;2022-12-05T15:59:23;1029.8;;;-4;65.5
45113;BME280;30873;53.908;27.576;2022-12-05T16:05:01;1029.8;;;-4;65.6
45113;BME280;30873;53.908;27.576;2022-12-05T16:09:37;1029.8;;;-4.1;65.9
45113;BME280;30873;53.908;27.576;2022-12-05T16:14:59;1029.8;;;-4.1;66.1
45113;BME280;30873;53.908;27.576;2022-12-05T16:19:21;1029.8;;;-4.2;66.5
45113;BME280;30873;53.908;27.576;2022-12-05T16:24:14;1029.8;;;-4.3;66.8
45113;BME280;30873;53.908;27.576;2022-12-05T16:29:35;1029.8;;;-4.2;66.9
45113;BME280;30873;53.908;27.576;2022-12-05T16:34:59;1029.8;;;-4.2;67.1
45113;BME280;30873;53.908;27.576;2022-12-05T16:40:01;1029.8;;;-4.3;67.4
45113;BME280;30873;53.908;27.576;2022-12-05T16:45:00;1029.7;;;-4.2;67.6
45113;BME280;30873;53.908;27.576;2022-12-05T16:49:23;1029.7;;;-4.1;67.5
45113;BME280;30873;53.908;27.576;2022-12-05T16:54:45;1029.7;;;-4;67.3
45113;BME280;30873;53.908;27.576;2022-12-05T16:59:47;1029.7;;;-4.1;67.2
45113;BME280;30873;53.908;27.576;2022-12-05T17:04:33;1029.8;;;-4.2;67.5
45113;BME280;30873;53.908;27.576;2022-12-05T17:10:01;1029.8;;;-4.2;67.8
45113;BME280;30873;53.908;27.576;2022-12-05T17:14:33;1029.8;;;-4.2;67.9
45113;BME280;30873;53.908;27.576;2022-12-05T17:19:37;1029.8;;;-4.3;68
45113;BME280;30873;53.908;27.576;2022-12-05T17:24:12;1029.7;;;-4.3;68.4
45113;BME280;30873;53.908;27.576;2022-12-05T17:30:01;1029.7;;;-4.2;68.4
45113;BME280;30873;53.908;27.576;2022-12-05T17:34:33;1029.6;;;-4.1;68.2
45113;BME280;30873;53.908;27.576;2022-12-05T17:39:21;1029.5;;;-4;68
45113;BME280;30873;53.908;27.576;2022-12-05T17:44:47;1029.5;;;-4;68
45113;BME280;30873;53.908;27.576;2022-12-05T17:49:59;1029.4;;;-4;68.1
45113;BME280;30873;53.908;27.576;2022-12-05T17:55:01;1029.3;;;-3.9;68.1
45113;BME280;30873;53.908;27.576;2022-12-05T18:00:01;1029.3;;;-4;68.5
45113;BME280;30873;53.908;27.576;2022-12-05T18:04:21;1029.3;;;-3.9;68.6
45113;BME280;30873;53.908;27.576;2022-12-05T18:09:47;1029.2;;;-4;68.7
45113;BME280;30873;53.908;27.576;2022-12-05T18:14:49;1029.2;;;-4;69.2
45113;BME280;30873;53.908;27.576;2022-12-05T18:19:11;1029.2;;;-4;69.2
45113;BME280;30873;53.908;27.576;2022-12-05T18:25:01;1029.1;;;-3.7;70.3
45113;BME280;30873;53.908;27.576;2022-12-05T18:29:23;1029.1;;;-3.2;69.6
45113;BME280;30873;53.908;27.576;2022-12-05T18:34:49;1029;;;-3.1;68.8
45113;BME280;30873;53.908;27.576;2022-12-05T18:39:12;1028.9;;;-3;68.1
45113;BME280;30873;53.908;27.576;2022-12-05T18:45:02;1028.9;;;-2.9;68.1
45113;BME280;30873;53.908;27.576;2022-12-05T18:49:33;1028.8;;;-3;67.5
45113;BME280;30873;53.908;27.576;2022-12-05T18:54:11;1028.8;;;-3.3;67.7
45113;BME280;30873;53.908;27.576;2022-12-05T18:59:35;1028.8;;;-3.6;68.6
45113;BME280;30873;53.908;27.576;2022-12-05T19:04:59;1028.9;;;-3.6;69
45113;BME280;30873;53.908;27.576;2022-12-05T19:10:01;1028.9;;;-3.7;69.4
45113;BME280;30873;53.908;27.576;2022-12-05T19:14:59;1028.9;;;-3.8;69.7
45113;BME280;30873;53.908;27.576;2022-12-05T19:19:12;1028.8;;;-3.8;70
45113;BME280;30873;53.908;27.576;2022-12-05T19:24:47;1028.7;;;-3.8;70.1
45113;BME280;30873;53.908;27.576;2022-12-05T19:29:49;1028.7;;;-3.8;70.3
45113;BME280;30873;53.908;27.576;2022-12-05T19:34:23;1028.7;;;-3.9;70.7
45113;BME280;30873;53.908;27.576;2022-12-05T19:40:01;1028.7;;;-3.9;71
45113;BME280;30873;53.908;27.576;2022-12-05T19:44:11;1028.8;;;-3.9;71.1
45113;BME280;30873;53.908;27.576;2022-12-05T19:49:47;1028.7;;;-3.9;71.4
45113;BME280;30873;53.908;27.576;2022-12-05T19:54:35;1028.6;;;-3.8;71.6
45113;BME280;30873;53.908;27.576;2022-12-05T20:00:01;1028.7;;;-3.8;71.4
45113;BME280;30873;53.908;27.576;2022-12-05T20:04:33;1028.6;;;-3.7;71.7
45113;BME280;30873;53.908;27.576;2022-12-05T20:09:23;1028.6;;;-3.6;71.4
45113;BME280;30873;53.908;27.576;2022-12-05T20:14:11;1028.6;;;-3.6;71.1
45113;BME280;30873;53.908;27.576;2022-12-05T20:19:45;1028.6;;;-3.6;71.3
45113;BME280;30873;53.908;27.576;2022-12-05T20:25:01;1028.5;;;-3.7;71.3
45113;BME280;30873;53.908;27.576;2022-12-05T20:30:01;1028.4;;;-3.7;71.7
45113;BME280;30873;53.908;27.576;2022-12-05T20:34:23;1028.4;;;-3.6;71.8
45113;BME280;30873;53.908;27.576;2022-12-05T20:39:47;1028.4;;;-3.6;71.6
45113;BME280;30873;53.908;27.576;2022-12-05T20:44:57;1028.3;;;-3.7;71.7
45113;BME280;30873;53.908;27.576;2022-12-05T20:49:33;1028.3;;;-3.7;72
45113;BME280;30873;53.908;27.576;2022-12-05T20:55:01;1028.3;;;-3.8;72.2
45113;BME280;30873;53.908;27.576;2022-12-05T20:59:31;1028.3;;;-3.8;72.7
45113;BME280;30873;53.908;27.576;2022-12-05T21:05:01;1028.2;;;-3.8;72.7
45113;BME280;30873;53.908;27.576;2022-12-05T21:09:35;1028.2;;;-3.8;72.9
45113;BME280;30873;53.908;27.576;2022-12-05T21:14:47;1028.2;;;-3.8;73
45113;BME280;30873;53.908;27.576;2022-12-05T21:19:11;1028.3;;;-3.8;73
45113;BME280;30873;53.908;27.576;2022-12-05T21:24:23;1028.2;;;-3.8;73.3
45113;BME280;30873;53.908;27.576;2022-12-05T21:29:35;1028.2;;;-3.8;73.5
45113;BME280;30873;53.908;27.576;2022-12-05T21:35:01;1028.1;;;-3.9;73.8
45113;BME280;30873;53.908;27.576;2022-12-05T21:39:35;1028;;;-3.8;74.1
45113;BME280;30873;53.908;27.576;2022-12-05T21:44:57;1028;;;-3.7;74
45113;BME280;30873;53.908;27.576;2022-12-05T21:49:11;1027.9;;;-3.7;74.1
45113;BME280;30873;53.908;27.576;2022-12-05T21:54:43;1027.8;;;-3.6;73.8
45113;BME280;30873;53.908;27.576;2022-12-05T21:59:45;1027.7;;;-3.6;73.9
45113;BME280;30873;53.908;27.576;2022-12-05T22:04:21;1027.5;;;-3.5;73.7
45113;BME280;30873;53.908;27.576;2022-12-05T22:09:55;1027.5;;;-3.5;73.4
45113;BME280;30873;53.908;27.576;2022-12-05T22:14:11;1027.4;;;-3.6;73.3
45113;BME280;30873;53.908;27.576;2022-12-05T22:19:57;1027.4;;;-3.6;73.6
45113;BME280;30873;53.908;27.576;2022-12-05T22:24:21;1027.3;;;-3.6;73.8
45113;BME280;30873;53.908;27.576;2022-12-05T22:29:45;1027.3;;;-3.5;73.9
45113;BME280;30873;53.908;27.576;2022-12-05T22:34:27;1027.3;;;-3.5;73.8
45113;BME280;30873;53.908;27.576;2022-12-05T22:39:11;1027.3;;;-3.5;73.9
45113;BME280;30873;53.908;27.576;2022-12-05T22:44:31;1027.2;;;-3.6;74.2
45113;BME280;30873;53.908;27.576;2022-12-05T22:49:43;1027.2;;;-3.5;74.2
45113;BME280;30873;53.908;27.576;2022-12-05T22:54:31;1027.1;;;-3.5;74.1
45113;BME280;30873;53.908;27.576;2022-12-05T22:59:57;1027.1;;;-3.5;74.2
45113;BME280;30873;53.908;27.576;2022-12-05T23:04:21;1026.9;;;-3.4;74.3
45113;BME280;30873;53.908;27.576;2022-12-05T23:09:41;1027;;;-3.5;74.2
45113;BME280;30873;53.908;27.576;2022-12-05T23:14:41;1026.9;;;-3.5;74.9
45113;BME280;30873;53.908;27.576;2022-12-05T23:19:43;1026.9;;;-3.4;74.7
45113;BME280;30873;53.908;27.576;2022-12-05T23:24:57;1026.8;;;-3.4;74.5
45113;BME280;30873;53.908;27.576;2022-12-05T23:29:29;1026.7;;;-3.5;74.6
45113;BME280;30873;53.908;27.576;2022-12-05T23:34:57;1026.7;;;-3.5;74.6
45113;BME280;30873;53.908;27.576;2022-12-05T23:39:31;1026.6;;;-3.3;74.8
45113;BME280;30873;53.908;27.576;2022-12-05T23:44:41;1026.5;;;-3.2;74.6
45113;BME280;30873;53.908;27.576;2022-12-05T23:49:29;1026.5;;;-3.2;74.3
45113;BME280;30873;53.908;27.576;2022-12-05T23:54:57;1026.5;;;-3.2;74.3
45113;BME280;30873;53.908;27.576;2022-12-05T23:59:11;1026.4;;;-3.3;74.3
